sensor_id;sensor_type;location;lat;lon;timestamp;P1;durP1;ratioP1;P2;durP2;ratioP2
10347;SDS011;5220;43.192;23.284;2023-04-02T00:01:36;2.40;;;1.83;;
10347;SDS011;5220;43.192;23.284;2023-04-02T00:04:07;3.72;;;2.42;;
10347;SDS011;5220;43.192;23.284;2023-04-02T00:06:46;4.30;;;1.70;;
10347;SDS011;5220;43.192;23.284;2023-04-02T00:09:20;1.17;;;1.10;;
10347;SDS011;5220;43.192;23.284;2023-04-02T00:11:51;2.33;;;2.13;;
10347;SDS011;5220;43.192;23.284;2023-04-02T00:14:23;2.13;;;1.80;;
10347;SDS011;5220;43.192;23.284;2023-04-02T00:16:51;0.93;;;0.88;;
10347;SDS011;5220;43.192;23.284;2023-04-02T00:19:23;1.25;;;1.13;;
10347;SDS011;5220;43.192;23.284;2023-04-02T00:21:54;3.08;;;2.40;;
10347;SDS011;5220;43.192;23.284;2023-04-02T00:24:23;1.92;;;1.30;;
10347;SDS011;5220;43.192;23.284;2023-04-02T00:26:50;1.35;;;1.00;;
10347;SDS011;5220;43.192;23.284;2023-04-02T00:29:18;1.80;;;1.20;;
10347;SDS011;5220;43.192;23.284;2023-04-02T00:31:46;2.45;;;1.30;;
10347;SDS011;5220;43.192;23.284;2023-04-02T00:34:16;5.93;;;1.42;;
10347;SDS011;5220;43.192;23.284;2023-04-02T00:36:46;0.93;;;0.93;;
10347;SDS011;5220;43.192;23.284;2023-04-02T00:39:17;0.93;;;0.93;;
10347;SDS011;5220;43.192;23.284;2023-04-02T00:41:46;1.73;;;1.08;;
10347;SDS011;5220;43.192;23.284;2023-04-02T00:44:19;1.00;;;0.95;;
10347;SDS011;5220;43.192;23.284;2023-04-02T00:46:47;0.80;;;0.80;;
10347;SDS011;5220;43.192;23.284;2023-04-02T00:49:17;1.15;;;0.90;;
10347;SDS011;5220;43.192;23.284;2023-04-02T00:51:50;1.55;;;0.90;;
10347;SDS011;5220;43.192;23.284;2023-04-02T00:54:20;0.93;;;0.70;;
10347;SDS011;5220;43.192;23.284;2023-04-02T00:56:51;3.38;;;0.93;;
10347;SDS011;5220;43.192;23.284;2023-04-02T00:59:24;11.48;;;5.65;;
10347;SDS011;5220;43.192;23.284;2023-04-02T01:01:56;1.80;;;1.60;;
10347;SDS011;5220;43.192;23.284;2023-04-02T01:04:27;2.55;;;1.30;;
10347;SDS011;5220;43.192;23.284;2023-04-02T01:07:00;8.02;;;4.30;;
10347;SDS011;5220;43.192;23.284;2023-04-02T01:09:34;2.10;;;1.17;;
10347;SDS011;5220;43.192;23.284;2023-04-02T01:12:22;2.35;;;1.35;;
10347;SDS011;5220;43.192;23.284;2023-04-02T01:15:04;2.35;;;0.80;;
10347;SDS011;5220;43.192;23.284;2023-04-02T01:17:39;0.55;;;0.55;;
10347;SDS011;5220;43.192;23.284;2023-04-02T01:20:27;1.42;;;0.80;;
10347;SDS011;5220;43.192;23.284;2023-04-02T01:23:10;3.67;;;2.42;;
10347;SDS011;5220;43.192;23.284;2023-04-02T01:25:44;1.25;;;1.10;;
10347;SDS011;5220;43.192;23.284;2023-04-02T01:28:16;0.90;;;0.90;;
10347;SDS011;5220;43.192;23.284;2023-04-02T01:30:48;2.05;;;1.75;;
10347;SDS011;5220;43.192;23.284;2023-04-02T01:33:18;4.13;;;2.08;;
10347;SDS011;5220;43.192;23.284;2023-04-02T01:35:47;2.10;;;1.25;;
10347;SDS011;5220;43.192;23.284;2023-04-02T01:38:21;1.42;;;1.13;;
10347;SDS011;5220;43.192;23.284;2023-04-02T01:40:54;4.25;;;2.38;;
10347;SDS011;5220;43.192;23.284;2023-04-02T01:43:26;46.25;;;22.33;;
10347;SDS011;5220;43.192;23.284;2023-04-02T01:46:03;20.02;;;9.65;;
10347;SDS011;5220;43.192;23.284;2023-04-02T01:48:31;10.13;;;4.35;;
10347;SDS011;5220;43.192;23.284;2023-04-02T01:50:58;66.53;;;22.85;;
10347;SDS011;5220;43.192;23.284;2023-04-02T01:53:28;34.88;;;12.40;;
10347;SDS011;5220;43.192;23.284;2023-04-02T01:55:57;43.97;;;16.65;;
10347;SDS011;5220;43.192;23.284;2023-04-02T01:58:26;41.10;;;17.27;;
10347;SDS011;5220;43.192;23.284;2023-04-02T02:00:55;53.17;;;20.67;;
10347;SDS011;5220;43.192;23.284;2023-04-02T02:03:28;49.92;;;20.35;;
10347;SDS011;5220;43.192;23.284;2023-04-02T02:05:55;46.25;;;18.17;;
10347;SDS011;5220;43.192;23.284;2023-04-02T02:08:30;18.73;;;8.57;;
10347;SDS011;5220;43.192;23.284;2023-04-02T02:11:00;28.48;;;10.32;;
10347;SDS011;5220;43.192;23.284;2023-04-02T02:13:28;17.60;;;7.53;;
10347;SDS011;5220;43.192;23.284;2023-04-02T02:15:56;15.52;;;7.25;;
10347;SDS011;5220;43.192;23.284;2023-04-02T02:18:23;6.53;;;4.70;;
10347;SDS011;5220;43.192;23.284;2023-04-02T02:20:53;14.88;;;6.93;;
10347;SDS011;5220;43.192;23.284;2023-04-02T02:23:22;12.80;;;6.43;;
10347;SDS011;5220;43.192;23.284;2023-04-02T02:25:49;8.95;;;5.03;;
10347;SDS011;5220;43.192;23.284;2023-04-02T02:28:15;4.38;;;2.20;;
10347;SDS011;5220;43.192;23.284;2023-04-02T02:30:46;2.33;;;1.58;;
10347;SDS011;5220;43.192;23.284;2023-04-02T02:33:16;1.08;;;0.90;;
10347;SDS011;5220;43.192;23.284;2023-04-02T02:35:48;1.10;;;1.02;;
10347;SDS011;5220;43.192;23.284;2023-04-02T02:41:18;0.57;;;0.57;;
10347;SDS011;5220;43.192;23.284;2023-04-02T02:43:54;5.03;;;0.70;;
10347;SDS011;5220;43.192;23.284;2023-04-02T02:46:25;0.90;;;0.90;;
10347;SDS011;5220;43.192;23.284;2023-04-02T02:48:54;3.10;;;1.88;;
10347;SDS011;5220;43.192;23.284;2023-04-02T02:51:24;6.50;;;4.60;;
10347;SDS011;5220;43.192;23.284;2023-04-02T02:53:55;4.80;;;2.92;;
10347;SDS011;5220;43.192;23.284;2023-04-02T02:56:26;6.40;;;3.25;;
10347;SDS011;5220;43.192;23.284;2023-04-02T02:58:56;1.85;;;0.88;;
10347;SDS011;5220;43.192;23.284;2023-04-02T03:01:26;0.95;;;0.90;;
10347;SDS011;5220;43.192;23.284;2023-04-02T03:03:53;2.00;;;0.73;;
10347;SDS011;5220;43.192;23.284;2023-04-02T03:06:21;0.82;;;0.80;;
10347;SDS011;5220;43.192;23.284;2023-04-02T03:08:49;1.02;;;0.90;;
10347;SDS011;5220;43.192;23.284;2023-04-02T03:11:25;4.72;;;3.00;;
10347;SDS011;5220;43.192;23.284;2023-04-02T03:13:59;3.80;;;2.00;;
10347;SDS011;5220;43.192;23.284;2023-04-02T03:16:33;1.55;;;1.00;;
10347;SDS011;5220;43.192;23.284;2023-04-02T03:19:04;1.35;;;0.95;;
10347;SDS011;5220;43.192;23.284;2023-04-02T03:21:42;3.28;;;0.82;;
10347;SDS011;5220;43.192;23.284;2023-04-02T03:24:15;2.00;;;0.98;;
10347;SDS011;5220;43.192;23.284;2023-04-02T03:26:47;1.85;;;1.30;;
10347;SDS011;5220;43.192;23.284;2023-04-02T03:29:18;2.50;;;1.08;;
10347;SDS011;5220;43.192;23.284;2023-04-02T03:31:52;0.90;;;0.85;;
10347;SDS011;5220;43.192;23.284;2023-04-02T03:34:23;3.00;;;1.08;;
10347;SDS011;5220;43.192;23.284;2023-04-02T03:36:55;3.17;;;2.80;;
10347;SDS011;5220;43.192;23.284;2023-04-02T03:39:26;4.93;;;2.38;;
10347;SDS011;5220;43.192;23.284;2023-04-02T03:42:02;7.97;;;5.30;;
10347;SDS011;5220;43.192;23.284;2023-04-02T03:44:33;19.35;;;10.60;;
10347;SDS011;5220;43.192;23.284;2023-04-02T03:47:07;17.45;;;11.50;;
10347;SDS011;5220;43.192;23.284;2023-04-02T03:49:38;10.40;;;6.70;;
10347;SDS011;5220;43.192;23.284;2023-04-02T03:52:08;11.35;;;8.27;;
10347;SDS011;5220;43.192;23.284;2023-04-02T03:54:37;7.68;;;5.03;;
10347;SDS011;5220;43.192;23.284;2023-04-02T03:57:05;4.45;;;2.40;;
10347;SDS011;5220;43.192;23.284;2023-04-02T03:59:45;3.00;;;2.40;;
10347;SDS011;5220;43.192;23.284;2023-04-02T04:02:25;2.33;;;1.58;;
10347;SDS011;5220;43.192;23.284;2023-04-02T04:04:59;2.58;;;1.20;;
10347;SDS011;5220;43.192;23.284;2023-04-02T04:07:28;2.85;;;1.90;;
10347;SDS011;5220;43.192;23.284;2023-04-02T04:09:58;2.80;;;1.48;;
10347;SDS011;5220;43.192;23.284;2023-04-02T04:12:29;1.50;;;1.35;;
10347;SDS011;5220;43.192;23.284;2023-04-02T04:14:58;0.88;;;0.88;;
10347;SDS011;5220;43.192;23.284;2023-04-02T04:17:29;0.90;;;0.90;;
10347;SDS011;5220;43.192;23.284;2023-04-02T04:20:08;1.02;;;0.85;;
10347;SDS011;5220;43.192;23.284;2023-04-02T04:22:45;2.10;;;0.93;;
10347;SDS011;5220;43.192;23.284;2023-04-02T04:25:18;1.00;;;1.00;;
10347;SDS011;5220;43.192;23.284;2023-04-02T04:27:53;1.10;;;0.90;;
10347;SDS011;5220;43.192;23.284;2023-04-02T04:30:31;1.40;;;0.77;;
10347;SDS011;5220;43.192;23.284;2023-04-02T04:33:09;0.60;;;0.60;;
10347;SDS011;5220;43.192;23.284;2023-04-02T04:35:43;1.63;;;1.10;;
10347;SDS011;5220;43.192;23.284;2023-04-02T04:38:15;0.98;;;0.98;;
10347;SDS011;5220;43.192;23.284;2023-04-02T04:40:52;2.05;;;1.77;;
10347;SDS011;5220;43.192;23.284;2023-04-02T04:43:27;2.83;;;2.38;;
10347;SDS011;5220;43.192;23.284;2023-04-02T04:45:59;1.40;;;1.30;;
10347;SDS011;5220;43.192;23.284;2023-04-02T04:48:30;1.75;;;1.65;;
10347;SDS011;5220;43.192;23.284;2023-04-02T04:51:03;9.10;;;5.72;;
10347;SDS011;5220;43.192;23.284;2023-04-02T04:53:33;4.95;;;4.28;;
10347;SDS011;5220;43.192;23.284;2023-04-02T04:56:11;4.85;;;1.98;;
10347;SDS011;5220;43.192;23.284;2023-04-02T04:58:41;3.20;;;2.30;;
10347;SDS011;5220;43.192;23.284;2023-04-02T05:01:15;2.30;;;2.10;;
10347;SDS011;5220;43.192;23.284;2023-04-02T05:03:46;2.58;;;2.38;;
10347;SDS011;5220;43.192;23.284;2023-04-02T05:06:22;2.20;;;2.00;;
10347;SDS011;5220;43.192;23.284;2023-04-02T05:08:58;3.08;;;2.78;;
10347;SDS011;5220;43.192;23.284;2023-04-02T05:11:29;4.97;;;3.03;;
10347;SDS011;5220;43.192;23.284;2023-04-02T05:14:02;4.55;;;3.20;;
10347;SDS011;5220;43.192;23.284;2023-04-02T05:16:34;2.08;;;1.83;;
10347;SDS011;5220;43.192;23.284;2023-04-02T05:19:05;1.60;;;1.50;;
10347;SDS011;5220;43.192;23.284;2023-04-02T05:21:38;4.65;;;2.88;;
10347;SDS011;5220;43.192;23.284;2023-04-02T05:24:18;1.92;;;1.55;;
10347;SDS011;5220;43.192;23.284;2023-04-02T05:26:58;2.60;;;1.45;;
10347;SDS011;5220;43.192;23.284;2023-04-02T05:29:30;1.15;;;1.15;;
10347;SDS011;5220;43.192;23.284;2023-04-02T05:32:01;1.98;;;1.20;;
10347;SDS011;5220;43.192;23.284;2023-04-02T05:34:31;1.10;;;1.10;;
10347;SDS011;5220;43.192;23.284;2023-04-02T05:37:01;1.67;;;1.30;;
10347;SDS011;5220;43.192;23.284;2023-04-02T05:39:28;1.42;;;1.33;;
10347;SDS011;5220;43.192;23.284;2023-04-02T05:41:57;1.58;;;1.40;;
10347;SDS011;5220;43.192;23.284;2023-04-02T05:44:29;2.42;;;1.80;;
10347;SDS011;5220;43.192;23.284;2023-04-02T05:46:57;6.75;;;2.30;;
10347;SDS011;5220;43.192;23.284;2023-04-02T05:49:30;3.35;;;2.88;;
10347;SDS011;5220;43.192;23.284;2023-04-02T05:52:02;3.70;;;3.15;;
10347;SDS011;5220;43.192;23.284;2023-04-02T05:54:33;6.88;;;2.72;;
10347;SDS011;5220;43.192;23.284;2023-04-02T05:57:08;4.20;;;1.73;;
10347;SDS011;5220;43.192;23.284;2023-04-02T05:59:42;29.15;;;18.92;;
10347;SDS011;5220;43.192;23.284;2023-04-02T06:02:16;10.75;;;6.45;;
10347;SDS011;5220;43.192;23.284;2023-04-02T06:04:49;5.72;;;3.67;;
10347;SDS011;5220;43.192;23.284;2023-04-02T06:07:22;3.63;;;3.33;;
10347;SDS011;5220;43.192;23.284;2023-04-02T06:09:52;11.82;;;10.00;;
10347;SDS011;5220;43.192;23.284;2023-04-02T06:12:25;11.18;;;7.18;;
10347;SDS011;5220;43.192;23.284;2023-04-02T06:14:57;14.27;;;12.18;;
10347;SDS011;5220;43.192;23.284;2023-04-02T06:17:24;18.60;;;14.55;;
10347;SDS011;5220;43.192;23.284;2023-04-02T06:19:52;31.27;;;23.17;;
10347;SDS011;5220;43.192;23.284;2023-04-02T06:22:23;17.00;;;14.50;;
10347;SDS011;5220;43.192;23.284;2023-04-02T06:24:57;19.25;;;14.65;;
10347;SDS011;5220;43.192;23.284;2023-04-02T06:27:27;16.67;;;13.23;;
10347;SDS011;5220;43.192;23.284;2023-04-02T06:29:55;12.07;;;9.45;;
10347;SDS011;5220;43.192;23.284;2023-04-02T06:32:30;10.93;;;7.10;;
10347;SDS011;5220;43.192;23.284;2023-04-02T06:34:57;21.52;;;13.02;;
10347;SDS011;5220;43.192;23.284;2023-04-02T06:37:25;8.57;;;6.28;;
10347;SDS011;5220;43.192;23.284;2023-04-02T06:39:55;4.15;;;2.20;;
10347;SDS011;5220;43.192;23.284;2023-04-02T06:42:24;1.80;;;1.70;;
10347;SDS011;5220;43.192;23.284;2023-04-02T06:44:53;2.67;;;2.10;;
10347;SDS011;5220;43.192;23.284;2023-04-02T06:47:27;1.42;;;1.13;;
10347;SDS011;5220;43.192;23.284;2023-04-02T06:49:59;2.42;;;2.22;;
10347;SDS011;5220;43.192;23.284;2023-04-02T06:52:33;3.60;;;2.00;;
10347;SDS011;5220;43.192;23.284;2023-04-02T06:55:04;4.93;;;3.90;;
10347;SDS011;5220;43.192;23.284;2023-04-02T06:57:44;7.47;;;6.50;;
10347;SDS011;5220;43.192;23.284;2023-04-02T07:00:31;3.59;;;2.69;;
10347;SDS011;5220;43.192;23.284;2023-04-02T07:03:04;25.63;;;18.60;;
10347;SDS011;5220;43.192;23.284;2023-04-02T07:05:32;4.13;;;2.70;;
10347;SDS011;5220;43.192;23.284;2023-04-02T07:07:59;2.28;;;1.90;;
10347;SDS011;5220;43.192;23.284;2023-04-02T07:10:25;21.17;;;15.20;;
10347;SDS011;5220;43.192;23.284;2023-04-02T07:12:53;3.72;;;1.80;;
10347;SDS011;5220;43.192;23.284;2023-04-02T07:15:20;10.52;;;7.07;;
10347;SDS011;5220;43.192;23.284;2023-04-02T07:17:48;5.47;;;4.72;;
10347;SDS011;5220;43.192;23.284;2023-04-02T07:20:21;4.85;;;4.18;;
10347;SDS011;5220;43.192;23.284;2023-04-02T07:22:51;5.40;;;4.68;;
10347;SDS011;5220;43.192;23.284;2023-04-02T07:25:18;3.45;;;3.10;;
10347;SDS011;5220;43.192;23.284;2023-04-02T07:27:45;11.63;;;8.77;;
10347;SDS011;5220;43.192;23.284;2023-04-02T07:30:12;24.08;;;15.50;;
10347;SDS011;5220;43.192;23.284;2023-04-02T07:32:39;6.38;;;4.57;;
10347;SDS011;5220;43.192;23.284;2023-04-02T07:35:06;1.67;;;1.30;;
10347;SDS011;5220;43.192;23.284;2023-04-02T07:37:35;1.63;;;1.38;;
10347;SDS011;5220;43.192;23.284;2023-04-02T07:42:38;7.57;;;4.97;;
10347;SDS011;5220;43.192;23.284;2023-04-02T07:45:05;1.02;;;1.00;;
10347;SDS011;5220;43.192;23.284;2023-04-02T07:47:33;1.50;;;1.40;;
10347;SDS011;5220;43.192;23.284;2023-04-02T07:49:59;2.58;;;2.38;;
10347;SDS011;5220;43.192;23.284;2023-04-02T07:52:26;11.38;;;8.57;;
10347;SDS011;5220;43.192;23.284;2023-04-02T07:54:54;1.50;;;1.40;;
10347;SDS011;5220;43.192;23.284;2023-04-02T07:57:21;9.13;;;6.35;;
10347;SDS011;5220;43.192;23.284;2023-04-02T07:59:48;1.70;;;1.60;;
10347;SDS011;5220;43.192;23.284;2023-04-02T08:02:17;6.65;;;5.90;;
10347;SDS011;5220;43.192;23.284;2023-04-02T08:04:45;5.70;;;4.43;;
10347;SDS011;5220;43.192;23.284;2023-04-02T08:07:11;5.82;;;5.10;;
10347;SDS011;5220;43.192;23.284;2023-04-02T08:09:39;4.72;;;4.22;;
10347;SDS011;5220;43.192;23.284;2023-04-02T08:12:08;1.00;;;1.00;;
10347;SDS011;5220;43.192;23.284;2023-04-02T08:14:37;3.25;;;2.65;;
10347;SDS011;5220;43.192;23.284;2023-04-02T08:17:03;3.13;;;2.92;;
10347;SDS011;5220;43.192;23.284;2023-04-02T08:19:30;2.33;;;2.03;;
10347;SDS011;5220;43.192;23.284;2023-04-02T08:21:57;1.00;;;1.00;;
10347;SDS011;5220;43.192;23.284;2023-04-02T08:24:24;2.53;;;1.77;;
10347;SDS011;5220;43.192;23.284;2023-04-02T08:26:51;7.38;;;5.03;;
10347;SDS011;5220;43.192;23.284;2023-04-02T08:29:20;2.10;;;0.82;;
10347;SDS011;5220;43.192;23.284;2023-04-02T08:31:46;1.67;;;1.33;;
10347;SDS011;5220;43.192;23.284;2023-04-02T08:34:13;2.65;;;2.08;;
10347;SDS011;5220;43.192;23.284;2023-04-02T08:36:40;2.47;;;1.95;;
10347;SDS011;5220;43.192;23.284;2023-04-02T08:39:09;3.58;;;1.60;;
10347;SDS011;5220;43.192;23.284;2023-04-02T08:41:37;1.67;;;1.13;;
10347;SDS011;5220;43.192;23.284;2023-04-02T08:44:12;8.70;;;3.30;;
10347;SDS011;5220;43.192;23.284;2023-04-02T08:46:57;2.67;;;1.40;;
10347;SDS011;5220;43.192;23.284;2023-04-02T08:49:28;0.98;;;0.98;;
10347;SDS011;5220;43.192;23.284;2023-04-02T08:51:58;1.33;;;0.90;;
10347;SDS011;5220;43.192;23.284;2023-04-02T08:54:31;3.38;;;1.23;;
10347;SDS011;5220;43.192;23.284;2023-04-02T08:57:03;2.65;;;1.95;;
10347;SDS011;5220;43.192;23.284;2023-04-02T08:59:34;8.65;;;5.50;;
10347;SDS011;5220;43.192;23.284;2023-04-02T09:02:13;6.93;;;5.57;;
10347;SDS011;5220;43.192;23.284;2023-04-02T09:04:52;2.72;;;2.50;;
10347;SDS011;5220;43.192;23.284;2023-04-02T09:07:21;4.53;;;3.97;;
10347;SDS011;5220;43.192;23.284;2023-04-02T09:09:48;1.30;;;1.20;;
10347;SDS011;5220;43.192;23.284;2023-04-02T09:12:16;4.38;;;3.97;;
10347;SDS011;5220;43.192;23.284;2023-04-02T09:14:49;6.80;;;5.18;;
10347;SDS011;5220;43.192;23.284;2023-04-02T09:17:25;2.55;;;1.70;;
10347;SDS011;5220;43.192;23.284;2023-04-02T09:19:53;4.50;;;3.53;;
10347;SDS011;5220;43.192;23.284;2023-04-02T09:22:22;2.72;;;1.30;;
10347;SDS011;5220;43.192;23.284;2023-04-02T09:24:51;1.63;;;1.40;;
10347;SDS011;5220;43.192;23.284;2023-04-02T09:27:18;1.95;;;1.33;;
10347;SDS011;5220;43.192;23.284;2023-04-02T09:29:48;2.08;;;1.55;;
10347;SDS011;5220;43.192;23.284;2023-04-02T09:32:22;5.38;;;0.80;;
10347;SDS011;5220;43.192;23.284;2023-04-02T09:35:04;2.45;;;2.17;;
10347;SDS011;5220;43.192;23.284;2023-04-02T09:37:36;1.50;;;1.40;;
10347;SDS011;5220;43.192;23.284;2023-04-02T09:40:15;1.38;;;0.70;;
10347;SDS011;5220;43.192;23.284;2023-04-02T09:43:00;5.75;;;2.10;;
10347;SDS011;5220;43.192;23.284;2023-04-02T09:45:30;1.27;;;1.17;;
10347;SDS011;5220;43.192;23.284;2023-04-02T09:47:57;2.10;;;1.80;;
10347;SDS011;5220;43.192;23.284;2023-04-02T09:50:27;2.55;;;2.08;;
10347;SDS011;5220;43.192;23.284;2023-04-02T09:52:55;0.73;;;0.73;;
10347;SDS011;5220;43.192;23.284;2023-04-02T09:55:23;1.35;;;0.98;;
10347;SDS011;5220;43.192;23.284;2023-04-02T09:58:05;2.45;;;1.52;;
10347;SDS011;5220;43.192;23.284;2023-04-02T10:00:37;0.68;;;0.68;;
10347;SDS011;5220;43.192;23.284;2023-04-02T10:03:12;2.75;;;2.45;;
10347;SDS011;5220;43.192;23.284;2023-04-02T10:06:01;0.65;;;0.65;;
10347;SDS011;5220;43.192;23.284;2023-04-02T10:08:30;2.28;;;0.73;;
10347;SDS011;5220;43.192;23.284;2023-04-02T10:10:58;0.47;;;0.47;;
10347;SDS011;5220;43.192;23.284;2023-04-02T10:13:27;1.60;;;1.35;;
10347;SDS011;5220;43.192;23.284;2023-04-02T10:15:59;1.25;;;1.15;;
10347;SDS011;5220;43.192;23.284;2023-04-02T10:18:33;1.80;;;1.42;;
10347;SDS011;5220;43.192;23.284;2023-04-02T10:21:07;1.88;;;1.35;;
10347;SDS011;5220;43.192;23.284;2023-04-02T10:23:36;1.00;;;1.00;;
10347;SDS011;5220;43.192;23.284;2023-04-02T10:26:12;11.95;;;8.63;;
10347;SDS011;5220;43.192;23.284;2023-04-02T10:28:56;0.85;;;0.75;;
10347;SDS011;5220;43.192;23.284;2023-04-02T10:31:43;1.02;;;0.98;;
10347;SDS011;5220;43.192;23.284;2023-04-02T10:34:19;4.57;;;3.33;;
10347;SDS011;5220;43.192;23.284;2023-04-02T10:36:52;3.03;;;2.20;;
10347;SDS011;5220;43.192;23.284;2023-04-02T10:39:22;30.17;;;24.02;;
10347;SDS011;5220;43.192;23.284;2023-04-02T10:41:56;9.95;;;4.88;;
10347;SDS011;5220;43.192;23.284;2023-04-02T10:44:30;1.80;;;1.70;;
10347;SDS011;5220;43.192;23.284;2023-04-02T10:47:09;4.15;;;1.30;;
10347;SDS011;5220;43.192;23.284;2023-04-02T10:49:49;3.22;;;1.58;;
10347;SDS011;5220;43.192;23.284;2023-04-02T10:52:25;1.63;;;1.48;;
10347;SDS011;5220;43.192;23.284;2023-04-02T10:54:57;6.30;;;3.58;;
10347;SDS011;5220;43.192;23.284;2023-04-02T10:57:29;1.20;;;1.10;;
10347;SDS011;5220;43.192;23.284;2023-04-02T11:00:02;3.47;;;1.50;;
10347;SDS011;5220;43.192;23.284;2023-04-02T11:02:37;2.38;;;2.17;;
10347;SDS011;5220;43.192;23.284;2023-04-02T11:05:14;7.00;;;5.25;;
10347;SDS011;5220;43.192;23.284;2023-04-02T11:07:47;2.15;;;1.50;;
10347;SDS011;5220;43.192;23.284;2023-04-02T11:10:18;2.47;;;2.28;;
10347;SDS011;5220;43.192;23.284;2023-04-02T11:12:48;3.05;;;2.55;;
10347;SDS011;5220;43.192;23.284;2023-04-02T11:15:21;0.93;;;0.93;;
10347;SDS011;5220;43.192;23.284;2023-04-02T11:17:50;5.97;;;4.28;;
10347;SDS011;5220;43.192;23.284;2023-04-02T11:23:17;3.17;;;2.55;;
10347;SDS011;5220;43.192;23.284;2023-04-02T11:25:45;0.85;;;0.80;;
10347;SDS011;5220;43.192;23.284;2023-04-02T11:28:13;0.68;;;0.47;;
10347;SDS011;5220;43.192;23.284;2023-04-02T11:30:52;4.05;;;3.65;;
10347;SDS011;5220;43.192;23.284;2023-04-02T11:33:31;1.60;;;1.50;;
10347;SDS011;5220;43.192;23.284;2023-04-02T11:39:08;1.05;;;0.65;;
10347;SDS011;5220;43.192;23.284;2023-04-02T11:44:26;0.95;;;0.95;;
10347;SDS011;5220;43.192;23.284;2023-04-02T11:46:56;0.70;;;0.70;;
10347;SDS011;5220;43.192;23.284;2023-04-02T11:52:37;5.25;;;2.88;;
10347;SDS011;5220;43.192;23.284;2023-04-02T11:55:21;1.20;;;1.10;;
10347;SDS011;5220;43.192;23.284;2023-04-02T12:07:08;2.30;;;1.40;;
10347;SDS011;5220;43.192;23.284;2023-04-02T12:09:51;1.00;;;0.95;;
10347;SDS011;5220;43.192;23.284;2023-04-02T12:12:24;1.50;;;1.10;;
10347;SDS011;5220;43.192;23.284;2023-04-02T12:14:52;1.30;;;0.50;;
10347;SDS011;5220;43.192;23.284;2023-04-02T12:17:23;1.55;;;1.45;;
10347;SDS011;5220;43.192;23.284;2023-04-02T12:19:53;0.57;;;0.57;;
10347;SDS011;5220;43.192;23.284;2023-04-02T12:22:23;0.60;;;0.60;;
10347;SDS011;5220;43.192;23.284;2023-04-02T12:24:52;1.05;;;0.95;;
10347;SDS011;5220;43.192;23.284;2023-04-02T12:27:23;1.90;;;1.73;;
10347;SDS011;5220;43.192;23.284;2023-04-02T12:29:52;0.55;;;0.55;;
10347;SDS011;5220;43.192;23.284;2023-04-02T12:32:20;1.50;;;1.17;;
10347;SDS011;5220;43.192;23.284;2023-04-02T12:34:52;0.70;;;0.70;;
10347;SDS011;5220;43.192;23.284;2023-04-02T12:37:24;2.13;;;1.45;;
10347;SDS011;5220;43.192;23.284;2023-04-02T12:39:53;3.47;;;1.70;;
10347;SDS011;5220;43.192;23.284;2023-04-02T12:42:30;1.30;;;1.20;;
10347;SDS011;5220;43.192;23.284;2023-04-02T12:44:58;0.82;;;0.82;;
10347;SDS011;5220;43.192;23.284;2023-04-02T12:47:26;1.25;;;1.15;;
10347;SDS011;5220;43.192;23.284;2023-04-02T12:49:53;2.58;;;1.30;;
10347;SDS011;5220;43.192;23.284;2023-04-02T12:52:22;2.08;;;1.30;;
10347;SDS011;5220;43.192;23.284;2023-04-02T12:54:53;2.00;;;1.80;;
10347;SDS011;5220;43.192;23.284;2023-04-02T12:57:32;1.92;;;1.73;;
10347;SDS011;5220;43.192;23.284;2023-04-02T13:02:58;3.70;;;2.70;;
10347;SDS011;5220;43.192;23.284;2023-04-02T13:05:30;1.20;;;1.13;;
10347;SDS011;5220;43.192;23.284;2023-04-02T13:08:00;1.83;;;1.70;;
10347;SDS011;5220;43.192;23.284;2023-04-02T13:10:29;2.50;;;2.30;;
10347;SDS011;5220;43.192;23.284;2023-04-02T13:12:57;1.38;;;1.27;;
10347;SDS011;5220;43.192;23.284;2023-04-02T13:15:26;1.15;;;1.10;;
10347;SDS011;5220;43.192;23.284;2023-04-02T13:18:02;1.10;;;1.00;;
10347;SDS011;5220;43.192;23.284;2023-04-02T13:20:32;0.93;;;0.93;;
10347;SDS011;5220;43.192;23.284;2023-04-02T13:23:21;1.20;;;1.10;;
10347;SDS011;5220;43.192;23.284;2023-04-02T13:25:49;3.38;;;1.25;;
10347;SDS011;5220;43.192;23.284;2023-04-02T13:28:16;4.35;;;1.90;;
10347;SDS011;5220;43.192;23.284;2023-04-02T13:30:43;0.80;;;0.80;;
10347;SDS011;5220;43.192;23.284;2023-04-02T13:33:10;1.48;;;1.10;;
10347;SDS011;5220;43.192;23.284;2023-04-02T13:35:37;1.15;;;0.90;;
10347;SDS011;5220;43.192;23.284;2023-04-02T13:38:06;3.30;;;3.00;;
10347;SDS011;5220;43.192;23.284;2023-04-02T13:40:33;2.15;;;1.80;;
10347;SDS011;5220;43.192;23.284;2023-04-02T13:43:01;1.73;;;1.40;;
10347;SDS011;5220;43.192;23.284;2023-04-02T13:45:28;3.08;;;2.78;;
10347;SDS011;5220;43.192;23.284;2023-04-02T13:47:57;2.65;;;2.13;;
10347;SDS011;5220;43.192;23.284;2023-04-02T13:50:26;3.10;;;2.72;;
10347;SDS011;5220;43.192;23.284;2023-04-02T13:52:55;2.90;;;2.17;;
10347;SDS011;5220;43.192;23.284;2023-04-02T13:55:26;4.97;;;2.00;;
10347;SDS011;5220;43.192;23.284;2023-04-02T13:57:56;1.25;;;1.20;;
10347;SDS011;5220;43.192;23.284;2023-04-02T14:00:23;1.40;;;1.30;;
10347;SDS011;5220;43.192;23.284;2023-04-02T14:02:53;1.13;;;1.02;;
10347;SDS011;5220;43.192;23.284;2023-04-02T14:05:27;1.60;;;1.48;;
10347;SDS011;5220;43.192;23.284;2023-04-02T14:08:05;3.55;;;2.28;;
10347;SDS011;5220;43.192;23.284;2023-04-02T14:10:40;2.08;;;1.98;;
10347;SDS011;5220;43.192;23.284;2023-04-02T14:13:19;1.40;;;1.30;;
10347;SDS011;5220;43.192;23.284;2023-04-02T14:16:02;1.23;;;1.10;;
10347;SDS011;5220;43.192;23.284;2023-04-02T14:18:44;1.13;;;1.02;;
10347;SDS011;5220;43.192;23.284;2023-04-02T14:21:26;3.55;;;3.25;;
10347;SDS011;5220;43.192;23.284;2023-04-02T14:24:12;1.88;;;1.77;;
10347;SDS011;5220;43.192;23.284;2023-04-02T14:26:47;3.58;;;1.50;;
10347;SDS011;5220;43.192;23.284;2023-04-02T14:29:25;1.52;;;0.90;;
10347;SDS011;5220;43.192;23.284;2023-04-02T14:32:02;1.75;;;1.40;;
10347;SDS011;5220;43.192;23.284;2023-04-02T14:34:32;4.78;;;3.78;;
10347;SDS011;5220;43.192;23.284;2023-04-02T14:37:10;1.67;;;1.58;;
10347;SDS011;5220;43.192;23.284;2023-04-02T14:39:45;1.30;;;0.98;;
10347;SDS011;5220;43.192;23.284;2023-04-02T14:42:20;1.52;;;1.42;;
10347;SDS011;5220;43.192;23.284;2023-04-02T14:44:52;4.13;;;3.00;;
10347;SDS011;5220;43.192;23.284;2023-04-02T14:47:26;5.43;;;3.53;;
10347;SDS011;5220;43.192;23.284;2023-04-02T14:50:00;2.75;;;1.00;;
10347;SDS011;5220;43.192;23.284;2023-04-02T14:52:31;1.13;;;1.08;;
10347;SDS011;5220;43.192;23.284;2023-04-02T14:55:00;0.80;;;0.80;;
10347;SDS011;5220;43.192;23.284;2023-04-02T14:57:34;1.50;;;1.40;;
10347;SDS011;5220;43.192;23.284;2023-04-02T15:00:04;1.08;;;1.08;;
10347;SDS011;5220;43.192;23.284;2023-04-02T15:02:37;1.02;;;0.98;;
10347;SDS011;5220;43.192;23.284;2023-04-02T15:05:10;0.55;;;0.55;;
10347;SDS011;5220;43.192;23.284;2023-04-02T15:07:42;0.57;;;0.57;;
10347;SDS011;5220;43.192;23.284;2023-04-02T15:10:16;0.90;;;0.90;;
10347;SDS011;5220;43.192;23.284;2023-04-02T15:12:48;0.88;;;0.88;;
10347;SDS011;5220;43.192;23.284;2023-04-02T15:15:19;2.00;;;1.80;;
10347;SDS011;5220;43.192;23.284;2023-04-02T15:17:53;1.17;;;1.08;;
10347;SDS011;5220;43.192;23.284;2023-04-02T15:20:23;1.20;;;1.10;;
10347;SDS011;5220;43.192;23.284;2023-04-02T15:22:55;2.00;;;1.65;;
10347;SDS011;5220;43.192;23.284;2023-04-02T15:25:30;1.67;;;1.42;;
10347;SDS011;5220;43.192;23.284;2023-04-02T15:28:07;3.17;;;2.88;;
10347;SDS011;5220;43.192;23.284;2023-04-02T15:30:44;4.32;;;3.30;;
10347;SDS011;5220;43.192;23.284;2023-04-02T15:33:32;4.70;;;3.10;;
10347;SDS011;5220;43.192;23.284;2023-04-02T15:36:19;3.95;;;3.38;;
10347;SDS011;5220;43.192;23.284;2023-04-02T15:38:59;4.15;;;2.70;;
10347;SDS011;5220;43.192;23.284;2023-04-02T15:41:33;3.50;;;3.00;;
10347;SDS011;5220;43.192;23.284;2023-04-02T15:44:08;3.00;;;2.78;;